sensor_id;sensor_type;location;lat;lon;timestamp;temperature;humidity
21823;DHT22;11074;48.596;9.238;2023-02-18T00:00:19;11.70;99.90
21823;DHT22;11074;48.596;9.238;2023-02-18T00:02:46;11.70;99.90
21823;DHT22;11074;48.596;9.238;2023-02-18T00:05:13;11.70;99.90
21823;DHT22;11074;48.596;9.238;2023-02-18T00:07:40;11.70;99.90
21823;DHT22;11074;48.596;9.238;2023-02-18T00:10:10;11.70;99.90
21823;DHT22;11074;48.596;9.238;2023-02-18T00:12:37;11.70;99.90
21823;DHT22;11074;48.596;9.238;2023-02-18T00:15:04;11.70;99.90
21823;DHT22;11074;48.596;9.238;2023-02-18T00:17:31;11.70;99.90
21823;DHT22;11074;48.596;9.238;2023-02-18T00:19:57;11.70;99.90
21823;DHT22;11074;48.596;9.238;2023-02-18T00:22:23;11.70;99.90
21823;DHT22;11074;48.596;9.238;2023-02-18T00:24:49;11.70;99.90
21823;DHT22;11074;48.596;9.238;2023-02-18T00:27:15;11.70;99.90
21823;DHT22;11074;48.596;9.238;2023-02-18T00:29:41;11.70;99.90
21823;DHT22;11074;48.596;9.238;2023-02-18T00:32:07;11.70;99.90
21823;DHT22;11074;48.596;9.238;2023-02-18T00:34:33;11.70;99.90
21823;DHT22;11074;48.596;9.238;2023-02-18T00:36:58;11.70;99.90
21823;DHT22;11074;48.596;9.238;2023-02-18T00:39:24;11.70;99.90
21823;DHT22;11074;48.596;9.238;2023-02-18T00:41:50;11.70;99.90
21823;DHT22;11074;48.596;9.238;2023-02-18T00:44:15;11.70;99.90
21823;DHT22;11074;48.596;9.238;2023-02-18T00:46:42;11.70;99.90
21823;DHT22;11074;48.596;9.238;2023-02-18T00:49:08;11.70;99.90
21823;DHT22;11074;48.596;9.238;2023-02-18T00:51:34;11.70;99.90
21823;DHT22;11074;48.596;9.238;2023-02-18T00:54:00;11.70;99.90
21823;DHT22;11074;48.596;9.238;2023-02-18T00:56:26;11.70;99.90
21823;DHT22;11074;48.596;9.238;2023-02-18T00:58:52;11.70;99.90
21823;DHT22;11074;48.596;9.238;2023-02-18T01:01:18;11.70;99.90
21823;DHT22;11074;48.596;9.238;2023-02-18T01:03:45;11.70;99.90
21823;DHT22;11074;48.596;9.238;2023-02-18T01:06:11;11.70;99.90
21823;DHT22;11074;48.596;9.238;2023-02-18T01:08:39;11.70;99.90
21823;DHT22;11074;48.596;9.238;2023-02-18T01:11:06;11.70;99.90
21823;DHT22;11074;48.596;9.238;2023-02-18T01:13:33;11.70;99.90
21823;DHT22;11074;48.596;9.238;2023-02-18T01:16:00;11.70;99.90
21823;DHT22;11074;48.596;9.238;2023-02-18T01:18:26;11.70;99.90
21823;DHT22;11074;48.596;9.238;2023-02-18T01:20:52;11.70;99.90
21823;DHT22;11074;48.596;9.238;2023-02-18T01:23:18;11.70;99.90
21823;DHT22;11074;48.596;9.238;2023-02-18T01:25:44;11.70;99.90
21823;DHT22;11074;48.596;9.238;2023-02-18T01:28:12;11.70;99.90
21823;DHT22;11074;48.596;9.238;2023-02-18T01:30:39;11.70;99.90
21823;DHT22;11074;48.596;9.238;2023-02-18T01:33:06;11.70;99.90
21823;DHT22;11074;48.596;9.238;2023-02-18T01:35:36;11.60;99.90
21823;DHT22;11074;48.596;9.238;2023-02-18T01:38:03;11.60;99.90
21823;DHT22;11074;48.596;9.238;2023-02-18T01:40:29;11.60;99.90
21823;DHT22;11074;48.596;9.238;2023-02-18T01:42:55;11.60;99.90
21823;DHT22;11074;48.596;9.238;2023-02-18T01:48:09;11.60;99.90
21823;DHT22;11074;48.596;9.238;2023-02-18T01:51:17;11.60;99.90
21823;DHT22;11074;48.596;9.238;2023-02-18T01:56:32;11.70;99.90
21823;DHT22;11074;48.596;9.238;2023-02-18T01:59:20;11.70;99.90
21823;DHT22;11074;48.596;9.238;2023-02-18T02:01:50;11.70;99.90
21823;DHT22;11074;48.596;9.238;2023-02-18T02:04:17;11.70;99.90
21823;DHT22;11074;48.596;9.238;2023-02-18T02:06:43;11.60;99.90
21823;DHT22;11074;48.596;9.238;2023-02-18T02:09:11;11.60;99.90
21823;DHT22;11074;48.596;9.238;2023-02-18T02:11:51;11.60;99.90
21823;DHT22;11074;48.596;9.238;2023-02-18T02:23:27;11.50;99.90
21823;DHT22;11074;48.596;9.238;2023-02-18T02:29:21;11.50;99.90
21823;DHT22;11074;48.596;9.238;2023-02-18T02:35:23;11.40;99.90
21823;DHT22;11074;48.596;9.238;2023-02-18T02:38:09;11.40;99.90
21823;DHT22;11074;48.596;9.238;2023-02-18T02:40:56;11.40;99.90
21823;DHT22;11074;48.596;9.238;2023-02-18T02:43:50;11.40;99.90
21823;DHT22;11074;48.596;9.238;2023-02-18T02:46:30;11.30;99.90
21823;DHT22;11074;48.596;9.238;2023-02-18T02:49:31;11.30;99.90
21823;DHT22;11074;48.596;9.238;2023-02-18T02:52:18;11.30;99.90
21823;DHT22;11074;48.596;9.238;2023-02-18T02:54:48;11.30;99.90
21823;DHT22;11074;48.596;9.238;2023-02-18T02:59:48;11.30;99.90
21823;DHT22;11074;48.596;9.238;2023-02-18T03:03:29;11.40;99.90
21823;DHT22;11074;48.596;9.238;2023-02-18T03:08:38;11.40;99.90
21823;DHT22;11074;48.596;9.238;2023-02-18T03:11:16;11.40;99.90
21823;DHT22;11074;48.596;9.238;2023-02-18T03:14:12;11.30;99.90
21823;DHT22;11074;48.596;9.238;2023-02-18T03:16:57;11.30;99.90
21823;DHT22;11074;48.596;9.238;2023-02-18T03:25:02;11.30;99.90
21823;DHT22;11074;48.596;9.238;2023-02-18T03:28:10;11.30;99.90
21823;DHT22;11074;48.596;9.238;2023-02-18T03:33:14;11.30;99.90
21823;DHT22;11074;48.596;9.238;2023-02-18T03:35:45;11.30;99.90
21823;DHT22;11074;48.596;9.238;2023-02-18T03:38:26;11.20;99.90
21823;DHT22;11074;48.596;9.238;2023-02-18T03:40:56;11.20;99.90
21823;DHT22;11074;48.596;9.238;2023-02-18T03:43:22;11.20;99.90
21823;DHT22;11074;48.596;9.238;2023-02-18T03:45:48;11.20;99.90
21823;DHT22;11074;48.596;9.238;2023-02-18T03:48:14;11.20;99.90
21823;DHT22;11074;48.596;9.238;2023-02-18T03:50:39;11.10;99.90
21823;DHT22;11074;48.596;9.238;2023-02-18T03:53:06;11.10;99.90
21823;DHT22;11074;48.596;9.238;2023-02-18T03:55:32;11.10;99.90
21823;DHT22;11074;48.596;9.238;2023-02-18T03:57:58;11.00;99.90
21823;DHT22;11074;48.596;9.238;2023-02-18T04:00:24;11.00;99.90
21823;DHT22;11074;48.596;9.238;2023-02-18T04:02:49;11.00;99.90
21823;DHT22;11074;48.596;9.238;2023-02-18T04:05:15;10.90;99.90
21823;DHT22;11074;48.596;9.238;2023-02-18T04:07:41;10.90;99.90
21823;DHT22;11074;48.596;9.238;2023-02-18T04:10:07;10.90;99.90
21823;DHT22;11074;48.596;9.238;2023-02-18T04:12:33;10.90;99.90
21823;DHT22;11074;48.596;9.238;2023-02-18T04:14:58;10.80;99.90
21823;DHT22;11074;48.596;9.238;2023-02-18T04:17:24;10.80;99.90
21823;DHT22;11074;48.596;9.238;2023-02-18T04:19:50;10.80;99.90
21823;DHT22;11074;48.596;9.238;2023-02-18T04:22:16;10.80;99.90
21823;DHT22;11074;48.596;9.238;2023-02-18T04:24:41;10.70;99.90
21823;DHT22;11074;48.596;9.238;2023-02-18T04:27:07;10.70;99.90
21823;DHT22;11074;48.596;9.238;2023-02-18T04:29:33;10.60;99.90
21823;DHT22;11074;48.596;9.238;2023-02-18T04:31:59;10.60;99.90
21823;DHT22;11074;48.596;9.238;2023-02-18T04:34:25;10.60;99.90
21823;DHT22;11074;48.596;9.238;2023-02-18T04:36:50;10.60;99.90
21823;DHT22;11074;48.596;9.238;2023-02-18T04:39:16;10.50;99.90
21823;DHT22;11074;48.596;9.238;2023-02-18T04:41:42;10.50;99.90
21823;DHT22;11074;48.596;9.238;2023-02-18T04:44:07;10.50;99.90
21823;DHT22;11074;48.596;9.238;2023-02-18T04:46:33;10.40;99.90
21823;DHT22;11074;48.596;9.238;2023-02-18T04:48:59;10.40;99.90
21823;DHT22;11074;48.596;9.238;2023-02-18T04:51:24;10.40;99.90
21823;DHT22;11074;48.596;9.238;2023-02-18T04:53:50;10.30;99.90
21823;DHT22;11074;48.596;9.238;2023-02-18T04:56:16;10.40;99.90
21823;DHT22;11074;48.596;9.238;2023-02-18T04:58:41;10.30;99.90
21823;DHT22;11074;48.596;9.238;2023-02-18T05:01:07;10.30;99.90
21823;DHT22;11074;48.596;9.238;2023-02-18T05:03:32;10.30;99.90
21823;DHT22;11074;48.596;9.238;2023-02-18T05:05:58;10.30;99.90
21823;DHT22;11074;48.596;9.238;2023-02-18T05:08:24;10.20;99.90
21823;DHT22;11074;48.596;9.238;2023-02-18T05:10:50;10.20;99.90
21823;DHT22;11074;48.596;9.238;2023-02-18T05:13:16;10.20;99.90
21823;DHT22;11074;48.596;9.238;2023-02-18T05:15:41;10.20;99.90
21823;DHT22;11074;48.596;9.238;2023-02-18T05:18:07;10.20;99.90
21823;DHT22;11074;48.596;9.238;2023-02-18T05:20:33;10.20;99.90
21823;DHT22;11074;48.596;9.238;2023-02-18T05:22:59;10.20;99.90
21823;DHT22;11074;48.596;9.238;2023-02-18T05:25:25;10.10;99.90
21823;DHT22;11074;48.596;9.238;2023-02-18T05:27:51;10.10;99.90
21823;DHT22;11074;48.596;9.238;2023-02-18T05:30:16;10.10;99.90
21823;DHT22;11074;48.596;9.238;2023-02-18T05:32:42;10.10;99.90
21823;DHT22;11074;48.596;9.238;2023-02-18T05:35:08;10.10;99.90
21823;DHT22;11074;48.596;9.238;2023-02-18T05:37:34;10.10;99.90
21823;DHT22;11074;48.596;9.238;2023-02-18T05:40:00;10.20;99.90
21823;DHT22;11074;48.596;9.238;2023-02-18T05:42:26;10.20;99.90
21823;DHT22;11074;48.596;9.238;2023-02-18T05:44:51;10.20;99.90
21823;DHT22;11074;48.596;9.238;2023-02-18T05:47:17;10.20;99.90
21823;DHT22;11074;48.596;9.238;2023-02-18T05:49:43;10.20;99.90
21823;DHT22;11074;48.596;9.238;2023-02-18T05:52:09;10.20;99.90
21823;DHT22;11074;48.596;9.238;2023-02-18T05:54:37;10.20;99.90
21823;DHT22;11074;48.596;9.238;2023-02-18T05:57:04;10.20;99.90
21823;DHT22;11074;48.596;9.238;2023-02-18T05:59:30;10.20;99.90
21823;DHT22;11074;48.596;9.238;2023-02-18T06:01:56;10.20;99.90
21823;DHT22;11074;48.596;9.238;2023-02-18T06:04:22;10.20;99.90
21823;DHT22;11074;48.596;9.238;2023-02-18T06:06:48;10.20;99.90
21823;DHT22;11074;48.596;9.238;2023-02-18T06:09:14;10.20;99.90
21823;DHT22;11074;48.596;9.238;2023-02-18T06:11:40;10.20;99.90
21823;DHT22;11074;48.596;9.238;2023-02-18T06:14:06;10.20;99.90
21823;DHT22;11074;48.596;9.238;2023-02-18T06:16:31;10.20;99.90
21823;DHT22;11074;48.596;9.238;2023-02-18T06:18:57;10.20;99.90
21823;DHT22;11074;48.596;9.238;2023-02-18T06:21:23;10.10;99.90
21823;DHT22;11074;48.596;9.238;2023-02-18T06:23:49;10.10;99.90
21823;DHT22;11074;48.596;9.238;2023-02-18T06:26:15;10.10;99.90
21823;DHT22;11074;48.596;9.238;2023-02-18T06:28:43;10.00;99.90
21823;DHT22;11074;48.596;9.238;2023-02-18T06:31:08;10.00;99.90
21823;DHT22;11074;48.596;9.238;2023-02-18T06:33:34;10.00;99.90
21823;DHT22;11074;48.596;9.238;2023-02-18T06:36:05;10.00;99.90
21823;DHT22;11074;48.596;9.238;2023-02-18T06:38:34;9.90;99.90
21823;DHT22;11074;48.596;9.238;2023-02-18T06:41:00;10.00;99.90
21823;DHT22;11074;48.596;9.238;2023-02-18T06:43:26;10.00;99.90
21823;DHT22;11074;48.596;9.238;2023-02-18T06:45:52;10.00;99.90
21823;DHT22;11074;48.596;9.238;2023-02-18T06:48:18;10.00;99.90
21823;DHT22;11074;48.596;9.238;2023-02-18T06:50:45;10.00;99.90
21823;DHT22;11074;48.596;9.238;2023-02-18T06:53:11;10.00;99.90
21823;DHT22;11074;48.596;9.238;2023-02-18T06:55:37;10.00;99.90
21823;DHT22;11074;48.596;9.238;2023-02-18T06:58:03;10.00;99.90
21823;DHT22;11074;48.596;9.238;2023-02-18T07:00:29;10.00;99.90
21823;DHT22;11074;48.596;9.238;2023-02-18T07:02:56;10.00;99.90
21823;DHT22;11074;48.596;9.238;2023-02-18T07:05:21;10.10;99.90
21823;DHT22;11074;48.596;9.238;2023-02-18T07:07:47;10.10;99.90
21823;DHT22;11074;48.596;9.238;2023-02-18T07:10:13;10.10;99.90
21823;DHT22;11074;48.596;9.238;2023-02-18T07:12:39;10.10;99.90
21823;DHT22;11074;48.596;9.238;2023-02-18T07:15:05;10.20;99.90
21823;DHT22;11074;48.596;9.238;2023-02-18T07:17:31;10.20;99.90
21823;DHT22;11074;48.596;9.238;2023-02-18T07:19:56;10.20;99.90
21823;DHT22;11074;48.596;9.238;2023-02-18T07:22:22;10.20;99.90
21823;DHT22;11074;48.596;9.238;2023-02-18T07:24:51;10.20;99.90
21823;DHT22;11074;48.596;9.238;2023-02-18T07:27:18;10.30;99.90
21823;DHT22;11074;48.596;9.238;2023-02-18T07:29:45;10.30;99.90
21823;DHT22;11074;48.596;9.238;2023-02-18T07:32:11;10.40;99.90
21823;DHT22;11074;48.596;9.238;2023-02-18T07:34:37;10.40;99.90
21823;DHT22;11074;48.596;9.238;2023-02-18T07:37:03;10.50;99.90
21823;DHT22;11074;48.596;9.238;2023-02-18T07:39:40;10.50;99.90
21823;DHT22;11074;48.596;9.238;2023-02-18T07:42:08;10.50;99.90
21823;DHT22;11074;48.596;9.238;2023-02-18T07:44:35;10.50;99.90
21823;DHT22;11074;48.596;9.238;2023-02-18T07:47:03;10.50;99.90
21823;DHT22;11074;48.596;9.238;2023-02-18T07:49:30;10.60;99.90
21823;DHT22;11074;48.596;9.238;2023-02-18T07:51:57;10.60;99.90
21823;DHT22;11074;48.596;9.238;2023-02-18T07:54:23;10.70;99.90
21823;DHT22;11074;48.596;9.238;2023-02-18T07:56:49;10.70;99.90
21823;DHT22;11074;48.596;9.238;2023-02-18T07:59:15;10.80;99.90
21823;DHT22;11074;48.596;9.238;2023-02-18T08:01:41;10.80;99.90
21823;DHT22;11074;48.596;9.238;2023-02-18T08:04:07;10.90;99.90
21823;DHT22;11074;48.596;9.238;2023-02-18T08:06:35;10.90;99.90
21823;DHT22;11074;48.596;9.238;2023-02-18T08:09:03;11.00;99.90
21823;DHT22;11074;48.596;9.238;2023-02-18T08:11:30;11.10;99.90
21823;DHT22;11074;48.596;9.238;2023-02-18T08:13:56;11.10;99.90
21823;DHT22;11074;48.596;9.238;2023-02-18T08:16:22;11.20;99.90
21823;DHT22;11074;48.596;9.238;2023-02-18T08:18:49;11.20;99.90
21823;DHT22;11074;48.596;9.238;2023-02-18T08:21:17;11.30;99.90
21823;DHT22;11074;48.596;9.238;2023-02-18T08:23:45;11.30;99.90
21823;DHT22;11074;48.596;9.238;2023-02-18T08:26:12;11.40;99.90
21823;DHT22;11074;48.596;9.238;2023-02-18T08:28:38;11.40;99.90
21823;DHT22;11074;48.596;9.238;2023-02-18T08:31:04;11.40;99.90
21823;DHT22;11074;48.596;9.238;2023-02-18T08:33:30;11.50;99.90
21823;DHT22;11074;48.596;9.238;2023-02-18T08:35:56;11.50;99.90
21823;DHT22;11074;48.596;9.238;2023-02-18T08:38:23;11.60;99.90
21823;DHT22;11074;48.596;9.238;2023-02-18T08:40:49;11.60;99.90
21823;DHT22;11074;48.596;9.238;2023-02-18T08:43:16;11.60;99.90
21823;DHT22;11074;48.596;9.238;2023-02-18T08:45:43;11.60;99.90
21823;DHT22;11074;48.596;9.238;2023-02-18T08:48:10;11.60;99.90
21823;DHT22;11074;48.596;9.238;2023-02-18T08:50:38;11.60;99.90
21823;DHT22;11074;48.596;9.238;2023-02-18T08:53:04;11.60;99.90
21823;DHT22;11074;48.596;9.238;2023-02-18T08:55:32;11.60;99.90
21823;DHT22;11074;48.596;9.238;2023-02-18T08:57:58;11.70;99.90
21823;DHT22;11074;48.596;9.238;2023-02-18T09:00:26;11.70;99.90
21823;DHT22;11074;48.596;9.238;2023-02-18T09:02:52;11.70;99.90
21823;DHT22;11074;48.596;9.238;2023-02-18T09:05:17;11.80;99.90
21823;DHT22;11074;48.596;9.238;2023-02-18T09:07:43;11.80;99.90
21823;DHT22;11074;48.596;9.238;2023-02-18T09:10:09;11.80;99.90
21823;DHT22;11074;48.596;9.238;2023-02-18T09:12:35;11.80;99.90
21823;DHT22;11074;48.596;9.238;2023-02-18T09:15:01;11.80;99.90
21823;DHT22;11074;48.596;9.238;2023-02-18T09:17:27;11.80;99.90
21823;DHT22;11074;48.596;9.238;2023-02-18T09:19:53;11.80;99.90
21823;DHT22;11074;48.596;9.238;2023-02-18T09:22:19;11.80;99.90
21823;DHT22;11074;48.596;9.238;2023-02-18T09:24:45;11.90;99.90
21823;DHT22;11074;48.596;9.238;2023-02-18T09:27:11;11.90;99.90
21823;DHT22;11074;48.596;9.238;2023-02-18T09:29:38;11.90;99.90
21823;DHT22;11074;48.596;9.238;2023-02-18T09:32:06;11.90;99.90
21823;DHT22;11074;48.596;9.238;2023-02-18T09:34:33;12.00;99.90
21823;DHT22;11074;48.596;9.238;2023-02-18T09:37:00;12.10;99.90
21823;DHT22;11074;48.596;9.238;2023-02-18T09:39:26;12.10;99.90
21823;DHT22;11074;48.596;9.238;2023-02-18T09:41:54;12.10;99.90
21823;DHT22;11074;48.596;9.238;2023-02-18T09:47:40;12.20;99.90
21823;DHT22;11074;48.596;9.238;2023-02-18T09:52:46;12.30;99.90
21823;DHT22;11074;48.596;9.238;2023-02-18T09:58:06;12.40;99.90
21823;DHT22;11074;48.596;9.238;2023-02-18T10:00:41;12.40;99.90
21823;DHT22;11074;48.596;9.238;2023-02-18T10:03:20;12.50;99.90
21823;DHT22;11074;48.596;9.238;2023-02-18T10:08:44;12.60;99.90
21823;DHT22;11074;48.596;9.238;2023-02-18T10:11:20;12.60;99.90
21823;DHT22;11074;48.596;9.238;2023-02-18T10:13:55;12.70;99.90
21823;DHT22;11074;48.596;9.238;2023-02-18T10:16:23;12.70;99.90
21823;DHT22;11074;48.596;9.238;2023-02-18T10:18:53;12.80;99.90
21823;DHT22;11074;48.596;9.238;2023-02-18T10:21:28;12.80;99.90
21823;DHT22;11074;48.596;9.238;2023-02-18T10:24:28;12.70;99.90
21823;DHT22;11074;48.596;9.238;2023-02-18T10:26:57;12.70;99.90
21823;DHT22;11074;48.596;9.238;2023-02-18T10:29:24;12.80;99.90
21823;DHT22;11074;48.596;9.238;2023-02-18T10:32:25;12.80;99.90
21823;DHT22;11074;48.596;9.238;2023-02-18T10:35:11;12.80;99.90
21823;DHT22;11074;48.596;9.238;2023-02-18T10:41:19;12.90;99.90
21823;DHT22;11074;48.596;9.238;2023-02-18T10:50:04;13.00;99.90
21823;DHT22;11074;48.596;9.238;2023-02-18T10:52:46;12.90;99.90
21823;DHT22;11074;48.596;9.238;2023-02-18T10:55:16;12.90;99.90
21823;DHT22;11074;48.596;9.238;2023-02-18T10:57:48;12.90;99.90
21823;DHT22;11074;48.596;9.238;2023-02-18T11:00:24;13.00;99.90
21823;DHT22;11074;48.596;9.238;2023-02-18T11:03:15;13.00;99.90
21823;DHT22;11074;48.596;9.238;2023-02-18T11:05:45;12.90;99.90
21823;DHT22;11074;48.596;9.238;2023-02-18T11:08:19;13.00;99.90
21823;DHT22;11074;48.596;9.238;2023-02-18T11:10:50;13.00;99.90
21823;DHT22;11074;48.596;9.238;2023-02-18T11:13:26;12.90;99.90
21823;DHT22;11074;48.596;9.238;2023-02-18T11:16:03;12.90;99.90
21823;DHT22;11074;48.596;9.238;2023-02-18T11:24:07;13.10;99.90
21823;DHT22;11074;48.596;9.238;2023-02-18T11:26:39;13.20;99.90
21823;DHT22;11074;48.596;9.238;2023-02-18T11:29:18;13.20;99.90
21823;DHT22;11074;48.596;9.238;2023-02-18T11:31:48;13.10;99.90
21823;DHT22;11074;48.596;9.238;2023-02-18T11:34:27;13.10;99.90
21823;DHT22;11074;48.596;9.238;2023-02-18T11:37:16;13.00;99.90
21823;DHT22;11074;48.596;9.238;2023-02-18T11:39:46;13.10;99.90
21823;DHT22;11074;48.596;9.238;2023-02-18T11:42:18;13.00;99.90
21823;DHT22;11074;48.596;9.238;2023-02-18T11:44:52;13.00;99.90
21823;DHT22;11074;48.596;9.238;2023-02-18T11:47:25;13.20;99.90
21823;DHT22;11074;48.596;9.238;2023-02-18T11:50:21;13.30;99.90
21823;DHT22;11074;48.596;9.238;2023-02-18T11:52:48;13.50;99.90
21823;DHT22;11074;48.596;9.238;2023-02-18T11:55:28;13.50;99.90
21823;DHT22;11074;48.596;9.238;2023-02-18T11:58:03;13.60;99.90
21823;DHT22;11074;48.596;9.238;2023-02-18T12:00:42;13.70;99.90
21823;DHT22;11074;48.596;9.238;2023-02-18T12:03:37;13.90;99.90
21823;DHT22;11074;48.596;9.238;2023-02-18T12:06:15;14.00;99.90
21823;DHT22;11074;48.596;9.238;2023-02-18T12:09:02;14.10;99.90
21823;DHT22;11074;48.596;9.238;2023-02-18T12:11:33;14.20;99.90
21823;DHT22;11074;48.596;9.238;2023-02-18T12:14:00;14.20;99.90
21823;DHT22;11074;48.596;9.238;2023-02-18T12:25:43;14.50;99.90
21823;DHT22;11074;48.596;9.238;2023-02-18T12:34:35;14.50;99.90
21823;DHT22;11074;48.596;9.238;2023-02-18T12:40:34;14.20;99.90
21823;DHT22;11074;48.596;9.238;2023-02-18T12:43:25;14.30;99.90
21823;DHT22;11074;48.596;9.238;2023-02-18T12:46:18;14.30;99.90
21823;DHT22;11074;48.596;9.238;2023-02-18T12:49:03;14.50;99.90
21823;DHT22;11074;48.596;9.238;2023-02-18T12:52:02;14.50;99.90
21823;DHT22;11074;48.596;9.238;2023-02-18T12:55:22;14.50;99.90
21823;DHT22;11074;48.596;9.238;2023-02-18T12:58:10;14.50;99.90
21823;DHT22;11074;48.596;9.238;2023-02-18T13:03:45;14.50;99.90
21823;DHT22;11074;48.596;9.238;2023-02-18T13:09:41;14.40;99.90
21823;DHT22;11074;48.596;9.238;2023-02-18T13:15:17;14.30;99.90
21823;DHT22;11074;48.596;9.238;2023-02-18T13:17:49;14.30;99.90
21823;DHT22;11074;48.596;9.238;2023-02-18T13:20:28;14.30;99.90
21823;DHT22;11074;48.596;9.238;2023-02-18T13:23:02;14.30;99.90
21823;DHT22;11074;48.596;9.238;2023-02-18T13:25:35;14.30;99.90
21823;DHT22;11074;48.596;9.238;2023-02-18T13:31:12;14.30;99.90
21823;DHT22;11074;48.596;9.238;2023-02-18T13:34:12;14.30;99.90
21823;DHT22;11074;48.596;9.238;2023-02-18T13:36:49;14.30;99.90
21823;DHT22;11074;48.596;9.238;2023-02-18T13:39:22;14.30;99.90
21823;DHT22;11074;48.596;9.238;2023-02-18T13:41:50;14.40;99.90
21823;DHT22;11074;48.596;9.238;2023-02-18T13:47:44;14.40;99.90
21823;DHT22;11074;48.596;9.238;2023-02-18T13:55:50;14.30;99.90
21823;DHT22;11074;48.596;9.238;2023-02-18T13:58:29;14.30;99.90
21823;DHT22;11074;48.596;9.238;2023-02-18T14:01:45;14.20;99.90
21823;DHT22;11074;48.596;9.238;2023-02-18T14:04:02;14.20;99.90
21823;DHT22;11074;48.596;9.238;2023-02-18T14:06:34;14.10;99.90
21823;DHT22;11074;48.596;9.238;2023-02-18T14:11:59;14.10;99.90
21823;DHT22;11074;48.596;9.238;2023-02-18T14:14:50;14.00;99.90
21823;DHT22;11074;48.596;9.238;2023-02-18T14:19:55;14.00;99.90
21823;DHT22;11074;48.596;9.238;2023-02-18T14:27:45;14.10;99.90
21823;DHT22;11074;48.596;9.238;2023-02-18T14:32:49;14.10;99.90
21823;DHT22;11074;48.596;9.238;2023-02-18T14:38:36;14.10;99.90
21823;DHT22;11074;48.596;9.238;2023-02-18T14:47:25;15.20;99.90
21823;DHT22;11074;48.596;9.238;2023-02-18T14:50:02;15.00;99.90
21823;DHT22;11074;48.596;9.238;2023-02-18T14:52:44;14.80;99.90
21823;DHT22;11074;48.596;9.238;2023-02-18T14:55:32;14.60;99.90
21823;DHT22;11074;48.596;9.238;2023-02-18T14:58:04;14.40;99.90
21823;DHT22;11074;48.596;9.238;2023-02-18T15:00:41;14.30;99.90
21823;DHT22;11074;48.596;9.238;2023-02-18T15:03:13;14.20;99.90
21823;DHT22;11074;48.596;9.238;2023-02-18T15:05:44;14.30;99.90
21823;DHT22;11074;48.596;9.238;2023-02-18T15:08:22;14.40;99.90
21823;DHT22;11074;48.596;9.238;2023-02-18T15:11:02;14.60;99.90
21823;DHT22;11074;48.596;9.238;2023-02-18T15:13:34;14.70;99.90
21823;DHT22;11074;48.596;9.238;2023-02-18T15:16:19;14.70;99.90
21823;DHT22;11074;48.596;9.238;2023-02-18T15:18:57;14.70;99.90
21823;DHT22;11074;48.596;9.238;2023-02-18T15:21:36;14.70;99.90
21823;DHT22;11074;48.596;9.238;2023-02-18T15:24:26;15.00;99.90
21823;DHT22;11074;48.596;9.238;2023-02-18T15:27:01;15.20;99.90
21823;DHT22;11074;48.596;9.238;2023-02-18T15:29:33;15.10;99.90
21823;DHT22;11074;48.596;9.238;2023-02-18T15:32:21;15.00;99.90
21823;DHT22;11074;48.596;9.238;2023-02-18T15:34:51;14.90;99.90
21823;DHT22;11074;48.596;9.238;2023-02-18T15:37:18;14.60;99.90
21823;DHT22;11074;48.596;9.238;2023-02-18T15:39:45;14.50;99.90
21823;DHT22;11074;48.596;9.238;2023-02-18T15:42:27;14.30;99.90
21823;DHT22;11074;48.596;9.238;2023-02-18T15:45:02;14.20;99.90
21823;DHT22;11074;48.596;9.238;2023-02-18T15:47:43;14.10;99.90
21823;DHT22;11074;48.596;9.238;2023-02-18T15:50:23;14.10;99.90
21823;DHT22;11074;48.596;9.238;2023-02-18T15:52:53;14.10;99.90
21823;DHT22;11074;48.596;9.238;2023-02-18T15:55:35;14.00;99.90
21823;DHT22;11074;48.596;9.238;2023-02-18T15:58:07;14.00;99.90
21823;DHT22;11074;48.596;9.238;2023-02-18T16:00:50;13.80;99.90
21823;DHT22;11074;48.596;9.238;2023-02-18T16:03:48;13.90;99.90
21823;DHT22;11074;48.596;9.238;2023-02-18T16:06:30;13.90;99.90
21823;DHT22;11074;48.596;9.238;2023-02-18T16:09:14;13.90;99.90
21823;DHT22;11074;48.596;9.238;2023-02-18T16:11:50;13.90;99.90
21823;DHT22;11074;48.596;9.238;2023-02-18T16:14:29;13.80;99.90
21823;DHT22;11074;48.596;9.238;2023-02-18T16:19:48;13.70;99.90
21823;DHT22;11074;48.596;9.238;2023-02-18T16:30:24;13.50;99.90
21823;DHT22;11074;48.596;9.238;2023-02-18T16:32:53;13.50;99.90
21823;DHT22;11074;48.596;9.238;2023-02-18T16:35:21;13.50;99.90
21823;DHT22;11074;48.596;9.238;2023-02-18T16:37:47;13.50;99.90
21823;DHT22;11074;48.596;9.238;2023-02-18T16:40:24;13.40;99.90
21823;DHT22;11074;48.596;9.238;2023-02-18T16:43:10;13.50;99.90
21823;DHT22;11074;48.596;9.238;2023-02-18T16:45:43;13.40;99.90
21823;DHT22;11074;48.596;9.238;2023-02-18T16:50:44;13.40;99.90
21823;DHT22;11074;48.596;9.238;2023-02-18T16:53:11;13.40;99.90
21823;DHT22;11074;48.596;9.238;2023-02-18T16:55:38;13.30;99.90
21823;DHT22;11074;48.596;9.238;2023-02-18T16:58:04;13.30;99.90
21823;DHT22;11074;48.596;9.238;2023-02-18T17:00:30;13.30;99.90
21823;DHT22;11074;48.596;9.238;2023-02-18T17:02:58;13.30;99.90
21823;DHT22;11074;48.596;9.238;2023-02-18T17:05:28;13.30;99.90
21823;DHT22;11074;48.596;9.238;2023-02-18T17:08:16;13.30;99.90
21823;DHT22;11074;48.596;9.238;2023-02-18T17:10:49;13.30;99.90
21823;DHT22;11074;48.596;9.238;2023-02-18T17:13:22;13.20;99.90
21823;DHT22;11074;48.596;9.238;2023-02-18T17:15:54;13.20;99.90
21823;DHT22;11074;48.596;9.238;2023-02-18T17:18:21;13.20;99.90
21823;DHT22;11074;48.596;9.238;2023-02-18T17:20:50;13.20;99.90
21823;DHT22;11074;48.596;9.238;2023-02-18T17:23:18;13.20;99.90
21823;DHT22;11074;48.596;9.238;2023-02-18T17:25:48;13.20;99.90
21823;DHT22;11074;48.596;9.238;2023-02-18T17:28:16;13.10;99.90
21823;DHT22;11074;48.596;9.238;2023-02-18T17:30:45;13.20;99.90
21823;DHT22;11074;48.596;9.238;2023-02-18T17:33:16;13.20;99.90
21823;DHT22;11074;48.596;9.238;2023-02-18T17:35:43;13.10;99.90
21823;DHT22;11074;48.596;9.238;2023-02-18T17:38:14;13.10;99.90
21823;DHT22;11074;48.596;9.238;2023-02-18T17:40:43;13.10;99.90
21823;DHT22;11074;48.596;9.238;2023-02-18T17:43:14;13.20;99.90
21823;DHT22;11074;48.596;9.238;2023-02-18T17:45:55;13.10;99.90
21823;DHT22;11074;48.596;9.238;2023-02-18T17:48:25;13.10;99.90
21823;DHT22;11074;48.596;9.238;2023-02-18T17:50:52;13.10;99.90
21823;DHT22;11074;48.596;9.238;2023-02-18T17:53:18;13.10;99.90
21823;DHT22;11074;48.596;9.238;2023-02-18T17:55:45;13.10;99.90
21823;DHT22;11074;48.596;9.238;2023-02-18T17:58:12;13.00;99.90
21823;DHT22;11074;48.596;9.238;2023-02-18T18:00:51;13.00;99.90
21823;DHT22;11074;48.596;9.238;2023-02-18T18:03:21;13.00;99.90
21823;DHT22;11074;48.596;9.238;2023-02-18T18:05:49;13.00;99.90
21823;DHT22;11074;48.596;9.238;2023-02-18T18:08:17;13.00;99.90
21823;DHT22;11074;48.596;9.238;2023-02-18T18:10:52;13.00;99.90
21823;DHT22;11074;48.596;9.238;2023-02-18T18:13:22;13.00;99.90